sensor_id;sensor_type;location;lat;lon;timestamp;pressure;altitude;pressure_sealevel;temperature
11926;BMP180;6022;48.768;18.608;2022-08-01T00:01:16;98261.78;;;13.36
11926;BMP180;6022;48.768;18.608;2022-08-01T00:03:44;98255.88;;;13.35
11926;BMP180;6022;48.768;18.608;2022-08-01T00:06:11;98261.53;;;13.39
11926;BMP180;6022;48.768;18.608;2022-08-01T00:08:39;98255.66;;;13.38
11926;BMP180;6022;48.768;18.608;2022-08-01T00:11:06;98254.00;;;13.37
11926;BMP180;6022;48.768;18.608;2022-08-01T00:13:36;98256.44;;;13.39
11926;BMP180;6022;48.768;18.608;2022-08-01T00:16:03;98249.97;;;13.35
11926;BMP180;6022;48.768;18.608;2022-08-01T00:18:31;98256.34;;;13.29
11926;BMP180;6022;48.768;18.608;2022-08-01T00:21:00;98250.66;;;13.26
11926;BMP180;6022;48.768;18.608;2022-08-01T00:23:27;98250.09;;;13.22
11926;BMP180;6022;48.768;18.608;2022-08-01T00:25:55;98249.28;;;13.22
11926;BMP180;6022;48.768;18.608;2022-08-01T00:28:23;98253.59;;;13.22
11926;BMP180;6022;48.768;18.608;2022-08-01T00:30:51;98246.84;;;13.21
11926;BMP180;6022;48.768;18.608;2022-08-01T00:33:18;98242.81;;;13.18
11926;BMP180;6022;48.768;18.608;2022-08-01T00:35:46;98241.06;;;13.19
11926;BMP180;6022;48.768;18.608;2022-08-01T00:38:13;98244.88;;;13.13
11926;BMP180;6022;48.768;18.608;2022-08-01T00:40:42;98244.31;;;13.10
11926;BMP180;6022;48.768;18.608;2022-08-01T00:43:09;98238.78;;;13.05
11926;BMP180;6022;48.768;18.608;2022-08-01T00:45:37;98239.00;;;13.02
11926;BMP180;6022;48.768;18.608;2022-08-01T00:48:05;98242.81;;;12.96
11926;BMP180;6022;48.768;18.608;2022-08-01T00:50:33;98241.31;;;12.94
11926;BMP180;6022;48.768;18.608;2022-08-01T00:53:01;98240.72;;;12.90
11926;BMP180;6022;48.768;18.608;2022-08-01T00:55:30;98239.34;;;12.86
11926;BMP180;6022;48.768;18.608;2022-08-01T00:57:59;98246.19;;;12.86
11926;BMP180;6022;48.768;18.608;2022-08-01T01:00:34;98241.88;;;12.86
11926;BMP180;6022;48.768;18.608;2022-08-01T01:03:22;98239.81;;;12.91
11926;BMP180;6022;48.768;18.608;2022-08-01T01:15:02;98244.78;;;12.82
11926;BMP180;6022;48.768;18.608;2022-08-01T01:17:46;98244.78;;;12.82
11926;BMP180;6022;48.768;18.608;2022-08-01T01:20:21;98246.41;;;12.83
11926;BMP180;6022;48.768;18.608;2022-08-01T01:34:23;98260.63;;;12.85
11926;BMP180;6022;48.768;18.608;2022-08-01T01:36:54;98263.16;;;12.85
11926;BMP180;6022;48.768;18.608;2022-08-01T01:39:28;98267.56;;;12.83
11926;BMP180;6022;48.768;18.608;2022-08-01T01:41:58;98270.00;;;12.85
11926;BMP180;6022;48.768;18.608;2022-08-01T01:44:28;98278.31;;;12.87
11926;BMP180;6022;48.768;18.608;2022-08-01T01:47:00;98272.19;;;12.89
11926;BMP180;6022;48.768;18.608;2022-08-01T01:49:31;98273.25;;;12.87
11926;BMP180;6022;48.768;18.608;2022-08-01T01:52:02;98275.47;;;12.91
11926;BMP180;6022;48.768;18.608;2022-08-01T01:54:37;98269.66;;;12.89
11926;BMP180;6022;48.768;18.608;2022-08-01T01:57:08;98268.72;;;12.90
11926;BMP180;6022;48.768;18.608;2022-08-01T01:59:39;98274.03;;;12.87
11926;BMP180;6022;48.768;18.608;2022-08-01T02:02:09;98273.34;;;12.85
11926;BMP180;6022;48.768;18.608;2022-08-01T02:04:42;98268.25;;;12.85
11926;BMP180;6022;48.768;18.608;2022-08-01T02:07:17;98272.09;;;12.91
11926;BMP180;6022;48.768;18.608;2022-08-01T02:09:46;98259.72;;;12.86
11926;BMP180;6022;48.768;18.608;2022-08-01T02:12:17;98261.44;;;12.86
11926;BMP180;6022;48.768;18.608;2022-08-01T02:14:48;98254.25;;;12.91
11926;BMP180;6022;48.768;18.608;2022-08-01T02:17:19;98259.22;;;12.82
11926;BMP180;6022;48.768;18.608;2022-08-01T02:19:48;98266.97;;;12.80
11926;BMP180;6022;48.768;18.608;2022-08-01T02:22:40;98267.75;;;12.70
11926;BMP180;6022;48.768;18.608;2022-08-01T02:28:16;98264.41;;;12.69
11926;BMP180;6022;48.768;18.608;2022-08-01T02:30:48;98276.88;;;12.61
11926;BMP180;6022;48.768;18.608;2022-08-01T02:33:18;98272.13;;;12.57
11926;BMP180;6022;48.768;18.608;2022-08-01T02:35:58;98268.63;;;12.47
11926;BMP180;6022;48.768;18.608;2022-08-01T02:38:46;98261.91;;;12.46
11926;BMP180;6022;48.768;18.608;2022-08-01T02:41:20;98267.00;;;12.46
11926;BMP180;6022;48.768;18.608;2022-08-01T02:43:57;98264.00;;;12.52
11926;BMP180;6022;48.768;18.608;2022-08-01T02:47:00;98261.13;;;12.45
11926;BMP180;6022;48.768;18.608;2022-08-01T02:49:42;98264.94;;;12.51
11926;BMP180;6022;48.768;18.608;2022-08-01T02:52:16;98267.50;;;12.51
11926;BMP180;6022;48.768;18.608;2022-08-01T02:54:48;98269.00;;;12.53
11926;BMP180;6022;48.768;18.608;2022-08-01T02:57:18;98259.75;;;12.52
11926;BMP180;6022;48.768;18.608;2022-08-01T02:59:50;98268.25;;;12.41
11926;BMP180;6022;48.768;18.608;2022-08-01T03:02:24;98267.94;;;12.45
11926;BMP180;6022;48.768;18.608;2022-08-01T03:04:53;98264.91;;;12.40
11926;BMP180;6022;48.768;18.608;2022-08-01T03:07:24;98264.91;;;12.40
11926;BMP180;6022;48.768;18.608;2022-08-01T03:10:02;98261.66;;;12.38
11926;BMP180;6022;48.768;18.608;2022-08-01T03:12:33;98268.59;;;12.36
11926;BMP180;6022;48.768;18.608;2022-08-01T03:15:07;98256.09;;;12.33
11926;BMP180;6022;48.768;18.608;2022-08-01T03:17:40;98258.88;;;12.30
11926;BMP180;6022;48.768;18.608;2022-08-01T03:20:12;98255.00;;;12.14
11926;BMP180;6022;48.768;18.608;2022-08-01T03:22:43;98265.28;;;12.12
11926;BMP180;6022;48.768;18.608;2022-08-01T03:25:15;98255.78;;;12.04
11926;BMP180;6022;48.768;18.608;2022-08-01T03:27:50;98260.28;;;12.00
11926;BMP180;6022;48.768;18.608;2022-08-01T03:30:19;98252.84;;;11.97
11926;BMP180;6022;48.768;18.608;2022-08-01T03:32:47;98256.50;;;12.06
11926;BMP180;6022;48.768;18.608;2022-08-01T03:35:15;98253.66;;;11.98
11926;BMP180;6022;48.768;18.608;2022-08-01T03:37:47;98264.06;;;11.95
11926;BMP180;6022;48.768;18.608;2022-08-01T03:40:47;98270.06;;;11.94
11926;BMP180;6022;48.768;18.608;2022-08-01T03:43:36;98260.31;;;11.88
11926;BMP180;6022;48.768;18.608;2022-08-01T03:46:08;98260.22;;;11.89
11926;BMP180;6022;48.768;18.608;2022-08-01T03:48:42;98255.94;;;11.90
11926;BMP180;6022;48.768;18.608;2022-08-01T03:51:12;98265.66;;;11.85
11926;BMP180;6022;48.768;18.608;2022-08-01T03:53:42;98262.88;;;11.88
11926;BMP180;6022;48.768;18.608;2022-08-01T03:56:16;98277.03;;;12.03
11926;BMP180;6022;48.768;18.608;2022-08-01T03:58:47;98273.34;;;12.07
11926;BMP180;6022;48.768;18.608;2022-08-01T04:01:17;98273.59;;;12.04
11926;BMP180;6022;48.768;18.608;2022-08-01T04:03:45;98268.75;;;12.11
11926;BMP180;6022;48.768;18.608;2022-08-01T04:06:14;98270.59;;;12.09
11926;BMP180;6022;48.768;18.608;2022-08-01T04:08:42;98270.75;;;12.19
11926;BMP180;6022;48.768;18.608;2022-08-01T04:11:10;98273.34;;;12.30
11926;BMP180;6022;48.768;18.608;2022-08-01T04:13:37;98274.97;;;12.42
11926;BMP180;6022;48.768;18.608;2022-08-01T04:16:05;98269.09;;;12.41
11926;BMP180;6022;48.768;18.608;2022-08-01T04:18:33;98277.56;;;12.52
11926;BMP180;6022;48.768;18.608;2022-08-01T04:21:00;98276.75;;;12.63
11926;BMP180;6022;48.768;18.608;2022-08-01T04:23:30;98277.53;;;12.86
11926;BMP180;6022;48.768;18.608;2022-08-01T04:26:00;98263.06;;;13.09
11926;BMP180;6022;48.768;18.608;2022-08-01T04:28:31;98276.38;;;13.34
11926;BMP180;6022;48.768;18.608;2022-08-01T04:31:02;98273.00;;;13.44
11926;BMP180;6022;48.768;18.608;2022-08-01T04:33:34;98272.75;;;13.58
11926;BMP180;6022;48.768;18.608;2022-08-01T04:36:05;98278.13;;;13.86
11926;BMP180;6022;48.768;18.608;2022-08-01T04:38:35;98279.13;;;14.05
11926;BMP180;6022;48.768;18.608;2022-08-01T04:41:06;98280.25;;;14.12
11926;BMP180;6022;48.768;18.608;2022-08-01T04:43:37;98280.00;;;14.26
11926;BMP180;6022;48.768;18.608;2022-08-01T04:46:09;98266.81;;;14.41
11926;BMP180;6022;48.768;18.608;2022-08-01T04:48:38;98267.75;;;14.90
11926;BMP180;6022;48.768;18.608;2022-08-01T04:51:17;98265.84;;;15.12
11926;BMP180;6022;48.768;18.608;2022-08-01T04:53:45;98263.31;;;14.42
11926;BMP180;6022;48.768;18.608;2022-08-01T04:56:16;98264.44;;;14.70
11926;BMP180;6022;48.768;18.608;2022-08-01T04:58:47;98263.41;;;15.98
11926;BMP180;6022;48.768;18.608;2022-08-01T05:01:34;98258.09;;;17.30
11926;BMP180;6022;48.768;18.608;2022-08-01T05:04:02;98255.84;;;17.88
11926;BMP180;6022;48.768;18.608;2022-08-01T05:06:29;98262.50;;;17.81
11926;BMP180;6022;48.768;18.608;2022-08-01T05:09:00;98266.88;;;18.75
11926;BMP180;6022;48.768;18.608;2022-08-01T05:11:27;98267.81;;;18.31
11926;BMP180;6022;48.768;18.608;2022-08-01T05:13:55;98267.22;;;18.80
11926;BMP180;6022;48.768;18.608;2022-08-01T05:16:22;98271.09;;;18.41
11926;BMP180;6022;48.768;18.608;2022-08-01T05:18:49;98263.16;;;19.68
11926;BMP180;6022;48.768;18.608;2022-08-01T05:21:19;98263.47;;;20.70
11926;BMP180;6022;48.768;18.608;2022-08-01T05:23:47;98262.88;;;21.22
11926;BMP180;6022;48.768;18.608;2022-08-01T05:26:15;98258.69;;;22.41
11926;BMP180;6022;48.768;18.608;2022-08-01T05:28:43;98259.91;;;23.96
11926;BMP180;6022;48.768;18.608;2022-08-01T05:31:12;98261.06;;;24.14
11926;BMP180;6022;48.768;18.608;2022-08-01T05:33:40;98250.75;;;23.79
11926;BMP180;6022;48.768;18.608;2022-08-01T05:36:07;98247.28;;;24.76
11926;BMP180;6022;48.768;18.608;2022-08-01T05:38:35;98254.19;;;25.57
11926;BMP180;6022;48.768;18.608;2022-08-01T05:41:02;98241.97;;;25.17
11926;BMP180;6022;48.768;18.608;2022-08-01T05:43:30;98244.44;;;26.37
11926;BMP180;6022;48.768;18.608;2022-08-01T05:45:58;98244.03;;;26.53
11926;BMP180;6022;48.768;18.608;2022-08-01T05:48:26;98239.47;;;27.50
11926;BMP180;6022;48.768;18.608;2022-08-01T05:50:54;98234.69;;;27.84
11926;BMP180;6022;48.768;18.608;2022-08-01T05:53:25;98241.94;;;27.26
11926;BMP180;6022;48.768;18.608;2022-08-01T05:55:52;98237.41;;;27.65
11926;BMP180;6022;48.768;18.608;2022-08-01T05:58:20;98240.00;;;28.87
11926;BMP180;6022;48.768;18.608;2022-08-01T06:00:48;98243.84;;;28.85
11926;BMP180;6022;48.768;18.608;2022-08-01T06:03:16;98247.19;;;28.91
11926;BMP180;6022;48.768;18.608;2022-08-01T06:05:43;98246.31;;;27.32
11926;BMP180;6022;48.768;18.608;2022-08-01T06:08:11;98238.03;;;28.34
11926;BMP180;6022;48.768;18.608;2022-08-01T06:10:38;98241.06;;;28.80
11926;BMP180;6022;48.768;18.608;2022-08-01T06:13:07;98241.03;;;30.33
11926;BMP180;6022;48.768;18.608;2022-08-01T06:15:34;98248.13;;;31.46
11926;BMP180;6022;48.768;18.608;2022-08-01T06:18:01;98251.34;;;32.59
11926;BMP180;6022;48.768;18.608;2022-08-01T06:20:32;98243.72;;;31.86
11926;BMP180;6022;48.768;18.608;2022-08-01T06:22:59;98249.47;;;32.76
11926;BMP180;6022;48.768;18.608;2022-08-01T06:25:28;98258.81;;;33.79
11926;BMP180;6022;48.768;18.608;2022-08-01T06:27:55;98259.13;;;32.70
11926;BMP180;6022;48.768;18.608;2022-08-01T06:30:23;98254.88;;;31.31
11926;BMP180;6022;48.768;18.608;2022-08-01T06:32:51;98255.31;;;29.43
11926;BMP180;6022;48.768;18.608;2022-08-01T06:35:18;98246.06;;;27.52
11926;BMP180;6022;48.768;18.608;2022-08-01T06:37:46;98250.13;;;25.94
11926;BMP180;6022;48.768;18.608;2022-08-01T06:40:16;98253.47;;;25.76
11926;BMP180;6022;48.768;18.608;2022-08-01T06:42:45;98248.84;;;25.31
11926;BMP180;6022;48.768;18.608;2022-08-01T06:45:15;98249.50;;;24.79
11926;BMP180;6022;48.768;18.608;2022-08-01T06:47:44;98253.59;;;24.05
11926;BMP180;6022;48.768;18.608;2022-08-01T06:50:17;98257.56;;;23.52
11926;BMP180;6022;48.768;18.608;2022-08-01T06:52:44;98258.81;;;22.98
11926;BMP180;6022;48.768;18.608;2022-08-01T06:55:12;98262.19;;;22.84
11926;BMP180;6022;48.768;18.608;2022-08-01T06:57:55;98261.72;;;22.81
11926;BMP180;6022;48.768;18.608;2022-08-01T07:00:24;98253.78;;;22.82
11926;BMP180;6022;48.768;18.608;2022-08-01T07:02:57;98253.38;;;22.57
11926;BMP180;6022;48.768;18.608;2022-08-01T07:05:27;98256.63;;;22.37
11926;BMP180;6022;48.768;18.608;2022-08-01T07:07:55;98254.09;;;22.51
11926;BMP180;6022;48.768;18.608;2022-08-01T07:10:27;98254.09;;;22.51
11926;BMP180;6022;48.768;18.608;2022-08-01T07:12:57;98245.84;;;22.33
11926;BMP180;6022;48.768;18.608;2022-08-01T07:15:29;98248.34;;;22.41
11926;BMP180;6022;48.768;18.608;2022-08-01T07:17:56;98251.88;;;22.48
11926;BMP180;6022;48.768;18.608;2022-08-01T07:20:27;98248.50;;;22.62
11926;BMP180;6022;48.768;18.608;2022-08-01T07:23:04;98257.53;;;22.80
11926;BMP180;6022;48.768;18.608;2022-08-01T07:25:34;98247.94;;;22.88
11926;BMP180;6022;48.768;18.608;2022-08-01T07:28:07;98259.53;;;22.92
11926;BMP180;6022;48.768;18.608;2022-08-01T07:30:34;98251.00;;;23.06
11926;BMP180;6022;48.768;18.608;2022-08-01T07:33:02;98244.91;;;22.99
11926;BMP180;6022;48.768;18.608;2022-08-01T07:35:30;98249.47;;;23.12
11926;BMP180;6022;48.768;18.608;2022-08-01T07:37:57;98249.19;;;23.07
11926;BMP180;6022;48.768;18.608;2022-08-01T07:40:24;98251.53;;;23.16
11926;BMP180;6022;48.768;18.608;2022-08-01T07:42:51;98250.53;;;23.17
11926;BMP180;6022;48.768;18.608;2022-08-01T07:45:19;98250.47;;;23.25
11926;BMP180;6022;48.768;18.608;2022-08-01T07:47:48;98251.25;;;23.40
11926;BMP180;6022;48.768;18.608;2022-08-01T07:50:19;98248.63;;;23.54
11926;BMP180;6022;48.768;18.608;2022-08-01T07:52:46;98246.44;;;23.86
11926;BMP180;6022;48.768;18.608;2022-08-01T07:55:14;98242.38;;;23.98
11926;BMP180;6022;48.768;18.608;2022-08-01T07:57:43;98243.34;;;23.97
11926;BMP180;6022;48.768;18.608;2022-08-01T08:00:12;98241.22;;;24.00
11926;BMP180;6022;48.768;18.608;2022-08-01T08:02:40;98244.09;;;24.12
11926;BMP180;6022;48.768;18.608;2022-08-01T08:05:08;98245.22;;;24.03
11926;BMP180;6022;48.768;18.608;2022-08-01T08:07:39;98245.97;;;24.18
11926;BMP180;6022;48.768;18.608;2022-08-01T08:10:07;98250.94;;;24.33
11926;BMP180;6022;48.768;18.608;2022-08-01T08:12:34;98246.91;;;24.31
11926;BMP180;6022;48.768;18.608;2022-08-01T08:15:02;98246.41;;;24.21
11926;BMP180;6022;48.768;18.608;2022-08-01T08:17:32;98245.78;;;24.19
11926;BMP180;6022;48.768;18.608;2022-08-01T08:20:05;98244.97;;;24.19
11926;BMP180;6022;48.768;18.608;2022-08-01T08:22:36;98240.03;;;24.24
11926;BMP180;6022;48.768;18.608;2022-08-01T08:25:05;98247.31;;;24.14
11926;BMP180;6022;48.768;18.608;2022-08-01T08:27:34;98250.56;;;24.36
11926;BMP180;6022;48.768;18.608;2022-08-01T08:30:07;98241.75;;;24.85
11926;BMP180;6022;48.768;18.608;2022-08-01T08:32:36;98248.44;;;25.34
11926;BMP180;6022;48.768;18.608;2022-08-01T08:35:07;98244.44;;;25.65
11926;BMP180;6022;48.768;18.608;2022-08-01T08:37:38;98252.75;;;26.14
11926;BMP180;6022;48.768;18.608;2022-08-01T08:40:15;98243.59;;;26.75
11926;BMP180;6022;48.768;18.608;2022-08-01T08:42:44;98247.50;;;27.48
11926;BMP180;6022;48.768;18.608;2022-08-01T08:45:13;98245.09;;;28.27
11926;BMP180;6022;48.768;18.608;2022-08-01T08:47:43;98239.63;;;29.43
11926;BMP180;6022;48.768;18.608;2022-08-01T08:50:11;98245.16;;;30.29
11926;BMP180;6022;48.768;18.608;2022-08-01T08:52:39;98243.25;;;30.18
11926;BMP180;6022;48.768;18.608;2022-08-01T08:55:08;98241.78;;;30.74
11926;BMP180;6022;48.768;18.608;2022-08-01T08:57:40;98239.06;;;31.37
11926;BMP180;6022;48.768;18.608;2022-08-01T09:00:11;98233.78;;;31.49
11926;BMP180;6022;48.768;18.608;2022-08-01T09:02:45;98231.34;;;31.59
11926;BMP180;6022;48.768;18.608;2022-08-01T09:05:16;98234.25;;;31.34
11926;BMP180;6022;48.768;18.608;2022-08-01T09:07:46;98234.91;;;30.50
11926;BMP180;6022;48.768;18.608;2022-08-01T09:10:13;98233.72;;;29.95
11926;BMP180;6022;48.768;18.608;2022-08-01T09:13:04;98229.50;;;29.82
11926;BMP180;6022;48.768;18.608;2022-08-01T09:15:47;98234.47;;;29.72
11926;BMP180;6022;48.768;18.608;2022-08-01T09:21:21;98238.09;;;29.54
11926;BMP180;6022;48.768;18.608;2022-08-01T09:23:55;98234.47;;;29.37
11926;BMP180;6022;48.768;18.608;2022-08-01T09:26:37;98232.72;;;29.31
11926;BMP180;6022;48.768;18.608;2022-08-01T09:29:09;98239.47;;;29.56
11926;BMP180;6022;48.768;18.608;2022-08-01T09:32:05;98232.94;;;29.30
11926;BMP180;6022;48.768;18.608;2022-08-01T09:34:38;98233.41;;;29.02
11926;BMP180;6022;48.768;18.608;2022-08-01T09:37:06;98236.00;;;28.85
11926;BMP180;6022;48.768;18.608;2022-08-01T09:39:38;98237.91;;;28.47
11926;BMP180;6022;48.768;18.608;2022-08-01T09:42:21;98240.38;;;28.12
11926;BMP180;6022;48.768;18.608;2022-08-01T09:44:55;98237.81;;;28.05
11926;BMP180;6022;48.768;18.608;2022-08-01T09:47:39;98237.78;;;27.68
11926;BMP180;6022;48.768;18.608;2022-08-01T09:50:08;98231.88;;;27.48
11926;BMP180;6022;48.768;18.608;2022-08-01T09:52:37;98237.94;;;27.17
11926;BMP180;6022;48.768;18.608;2022-08-01T09:55:08;98234.97;;;27.07
11926;BMP180;6022;48.768;18.608;2022-08-01T09:57:35;98234.78;;;27.02
11926;BMP180;6022;48.768;18.608;2022-08-01T10:00:04;98235.16;;;27.12
11926;BMP180;6022;48.768;18.608;2022-08-01T10:02:35;98245.94;;;27.35
11926;BMP180;6022;48.768;18.608;2022-08-01T10:05:09;98239.09;;;27.46
11926;BMP180;6022;48.768;18.608;2022-08-01T10:08:02;98245.69;;;27.55
11926;BMP180;6022;48.768;18.608;2022-08-01T10:10:36;98250.13;;;27.36
11926;BMP180;6022;48.768;18.608;2022-08-01T10:13:04;98245.53;;;27.44
11926;BMP180;6022;48.768;18.608;2022-08-01T10:15:35;98232.66;;;27.36
11926;BMP180;6022;48.768;18.608;2022-08-01T10:18:07;98235.66;;;27.52
11926;BMP180;6022;48.768;18.608;2022-08-01T10:20:54;98234.94;;;27.76
11926;BMP180;6022;48.768;18.608;2022-08-01T10:23:26;98245.13;;;27.84
11926;BMP180;6022;48.768;18.608;2022-08-01T10:26:14;98237.59;;;28.07
11926;BMP180;6022;48.768;18.608;2022-08-01T10:28:48;98240.03;;;28.02
11926;BMP180;6022;48.768;18.608;2022-08-01T10:31:17;98238.63;;;27.99
11926;BMP180;6022;48.768;18.608;2022-08-01T10:34:01;98230.78;;;28.06
11926;BMP180;6022;48.768;18.608;2022-08-01T10:36:30;98225.22;;;28.51
11926;BMP180;6022;48.768;18.608;2022-08-01T10:38:58;98229.47;;;29.35
11926;BMP180;6022;48.768;18.608;2022-08-01T10:41:30;98230.81;;;29.38
11926;BMP180;6022;48.768;18.608;2022-08-01T10:43:58;98223.00;;;29.20
11926;BMP180;6022;48.768;18.608;2022-08-01T10:46:30;98223.72;;;29.27
11926;BMP180;6022;48.768;18.608;2022-08-01T10:49:17;98218.44;;;29.63
11926;BMP180;6022;48.768;18.608;2022-08-01T10:51:47;98216.41;;;29.65
11926;BMP180;6022;48.768;18.608;2022-08-01T10:54:20;98218.25;;;29.82
11926;BMP180;6022;48.768;18.608;2022-08-01T10:57:01;98225.38;;;29.75
11926;BMP180;6022;48.768;18.608;2022-08-01T10:59:47;98219.22;;;29.34
11926;BMP180;6022;48.768;18.608;2022-08-01T11:02:32;98218.09;;;29.59
11926;BMP180;6022;48.768;18.608;2022-08-01T11:05:09;98215.41;;;29.48
11926;BMP180;6022;48.768;18.608;2022-08-01T11:07:52;98215.16;;;29.38
11926;BMP180;6022;48.768;18.608;2022-08-01T11:10:43;98215.16;;;29.38
11926;BMP180;6022;48.768;18.608;2022-08-01T11:13:11;98211.53;;;29.39
11926;BMP180;6022;48.768;18.608;2022-08-01T11:15:41;98210.31;;;29.70
11926;BMP180;6022;48.768;18.608;2022-08-01T11:18:30;98208.72;;;29.69
11926;BMP180;6022;48.768;18.608;2022-08-01T11:21:01;98205.22;;;29.75
11926;BMP180;6022;48.768;18.608;2022-08-01T11:23:53;98205.56;;;30.08
11926;BMP180;6022;48.768;18.608;2022-08-01T11:26:23;98196.34;;;30.06
11926;BMP180;6022;48.768;18.608;2022-08-01T11:29:17;98204.78;;;30.19
11926;BMP180;6022;48.768;18.608;2022-08-01T11:31:49;98207.59;;;30.46
11926;BMP180;6022;48.768;18.608;2022-08-01T11:34:17;98201.50;;;30.98
11926;BMP180;6022;48.768;18.608;2022-08-01T11:36:49;98197.59;;;31.00
11926;BMP180;6022;48.768;18.608;2022-08-01T11:39:41;98188.63;;;31.47
11926;BMP180;6022;48.768;18.608;2022-08-01T11:42:18;98188.38;;;31.48
11926;BMP180;6022;48.768;18.608;2022-08-01T11:44:50;98188.56;;;31.19
11926;BMP180;6022;48.768;18.608;2022-08-01T11:47:50;98198.03;;;30.63
11926;BMP180;6022;48.768;18.608;2022-08-01T11:50:35;98189.22;;;30.24
11926;BMP180;6022;48.768;18.608;2022-08-01T11:53:09;98191.53;;;29.91
11926;BMP180;6022;48.768;18.608;2022-08-01T11:55:50;98193.31;;;29.79
11926;BMP180;6022;48.768;18.608;2022-08-01T11:58:26;98193.31;;;29.79
11926;BMP180;6022;48.768;18.608;2022-08-01T12:01:01;98180.84;;;29.46
11926;BMP180;6022;48.768;18.608;2022-08-01T12:03:31;98187.63;;;29.82
11926;BMP180;6022;48.768;18.608;2022-08-01T12:06:00;98183.53;;;30.15
11926;BMP180;6022;48.768;18.608;2022-08-01T12:08:31;98179.34;;;30.26
11926;BMP180;6022;48.768;18.608;2022-08-01T12:11:04;98183.81;;;30.37
11926;BMP180;6022;48.768;18.608;2022-08-01T12:13:41;98177.56;;;30.72
11926;BMP180;6022;48.768;18.608;2022-08-01T12:16:11;98181.94;;;31.28
11926;BMP180;6022;48.768;18.608;2022-08-01T12:18:41;98173.16;;;31.89
11926;BMP180;6022;48.768;18.608;2022-08-01T12:21:09;98171.53;;;32.65
11926;BMP180;6022;48.768;18.608;2022-08-01T12:23:36;98168.25;;;33.12
11926;BMP180;6022;48.768;18.608;2022-08-01T12:26:04;98170.47;;;32.98
11926;BMP180;6022;48.768;18.608;2022-08-01T12:28:39;98159.97;;;32.00
11926;BMP180;6022;48.768;18.608;2022-08-01T12:31:07;98162.75;;;31.00
11926;BMP180;6022;48.768;18.608;2022-08-01T12:33:38;98165.91;;;31.02
11926;BMP180;6022;48.768;18.608;2022-08-01T12:36:06;98172.91;;;30.85
11926;BMP180;6022;48.768;18.608;2022-08-01T12:38:40;98167.28;;;30.70
11926;BMP180;6022;48.768;18.608;2022-08-01T12:41:10;98171.06;;;30.40
11926;BMP180;6022;48.768;18.608;2022-08-01T12:43:40;98166.56;;;30.18
11926;BMP180;6022;48.768;18.608;2022-08-01T12:46:07;98167.75;;;29.93
11926;BMP180;6022;48.768;18.608;2022-08-01T12:48:38;98168.81;;;29.74
11926;BMP180;6022;48.768;18.608;2022-08-01T12:51:06;98168.03;;;29.73
11926;BMP180;6022;48.768;18.608;2022-08-01T12:53:36;98161.06;;;29.67
11926;BMP180;6022;48.768;18.608;2022-08-01T12:56:08;98163.06;;;29.83
11926;BMP180;6022;48.768;18.608;2022-08-01T12:58:38;98165.69;;;29.95
11926;BMP180;6022;48.768;18.608;2022-08-01T13:01:09;98162.53;;;30.04
11926;BMP180;6022;48.768;18.608;2022-08-01T13:03:38;98160.19;;;30.14
11926;BMP180;6022;48.768;18.608;2022-08-01T13:06:14;98165.09;;;30.22
11926;BMP180;6022;48.768;18.608;2022-08-01T13:08:45;98167.56;;;30.17
11926;BMP180;6022;48.768;18.608;2022-08-01T13:11:15;98158.44;;;29.97
11926;BMP180;6022;48.768;18.608;2022-08-01T13:13:50;98168.66;;;29.98
11926;BMP180;6022;48.768;18.608;2022-08-01T13:16:24;98166.16;;;29.92
11926;BMP180;6022;48.768;18.608;2022-08-01T13:19:12;98165.25;;;29.68
11926;BMP180;6022;48.768;18.608;2022-08-01T13:21:55;98162.16;;;29.60
11926;BMP180;6022;48.768;18.608;2022-08-01T13:24:27;98158.44;;;29.67
11926;BMP180;6022;48.768;18.608;2022-08-01T13:26:57;98153.97;;;29.57
11926;BMP180;6022;48.768;18.608;2022-08-01T13:29:39;98156.41;;;29.69
11926;BMP180;6022;48.768;18.608;2022-08-01T13:32:21;98149.34;;;29.41
11926;BMP180;6022;48.768;18.608;2022-08-01T13:35:07;98147.03;;;29.15
11926;BMP180;6022;48.768;18.608;2022-08-01T13:37:41;98142.81;;;29.14
11926;BMP180;6022;48.768;18.608;2022-08-01T13:40:10;98139.88;;;28.75
11926;BMP180;6022;48.768;18.608;2022-08-01T13:42:38;98144.28;;;28.75
11926;BMP180;6022;48.768;18.608;2022-08-01T13:45:07;98143.44;;;28.56
11926;BMP180;6022;48.768;18.608;2022-08-01T13:47:44;98139.03;;;28.57
11926;BMP180;6022;48.768;18.608;2022-08-01T13:50:32;98139.53;;;28.23
11926;BMP180;6022;48.768;18.608;2022-08-01T13:52:59;98140.28;;;28.30
11926;BMP180;6022;48.768;18.608;2022-08-01T13:55:27;98136.47;;;28.51
11926;BMP180;6022;48.768;18.608;2022-08-01T13:58:01;98126.22;;;28.31
11926;BMP180;6022;48.768;18.608;2022-08-01T14:00:28;98138.16;;;28.21
11926;BMP180;6022;48.768;18.608;2022-08-01T14:02:56;98143.09;;;28.29
11926;BMP180;6022;48.768;18.608;2022-08-01T14:05:23;98152.25;;;28.38
11926;BMP180;6022;48.768;18.608;2022-08-01T14:07:53;98149.38;;;28.21
11926;BMP180;6022;48.768;18.608;2022-08-01T14:10:25;98143.34;;;27.97
11926;BMP180;6022;48.768;18.608;2022-08-01T14:12:57;98151.75;;;27.99
11926;BMP180;6022;48.768;18.608;2022-08-01T14:15:28;98159.72;;;28.10
11926;BMP180;6022;48.768;18.608;2022-08-01T14:18:07;98168.06;;;28.18
11926;BMP180;6022;48.768;18.608;2022-08-01T14:20:38;98157.53;;;28.31
11926;BMP180;6022;48.768;18.608;2022-08-01T14:23:07;98165.66;;;28.41
11926;BMP180;6022;48.768;18.608;2022-08-01T14:25:37;98158.88;;;28.58
11926;BMP180;6022;48.768;18.608;2022-08-01T14:28:25;98157.03;;;28.65
11926;BMP180;6022;48.768;18.608;2022-08-01T14:30:56;98165.16;;;28.75
11926;BMP180;6022;48.768;18.608;2022-08-01T14:33:24;98165.16;;;28.75
11926;BMP180;6022;48.768;18.608;2022-08-01T14:35:52;98172.50;;;28.66
11926;BMP180;6022;48.768;18.608;2022-08-01T14:38:32;98168.03;;;28.73
11926;BMP180;6022;48.768;18.608;2022-08-01T14:41:01;98170.56;;;28.80
11926;BMP180;6022;48.768;18.608;2022-08-01T14:43:30;98170.84;;;28.90
11926;BMP180;6022;48.768;18.608;2022-08-01T14:46:01;98175.03;;;28.73
11926;BMP180;6022;48.768;18.608;2022-08-01T14:48:32;98163.91;;;28.59
11926;BMP180;6022;48.768;18.608;2022-08-01T14:51:02;98167.00;;;28.50
11926;BMP180;6022;48.768;18.608;2022-08-01T14:53:31;98168.81;;;28.25
11926;BMP180;6022;48.768;18.608;2022-08-01T14:56:03;98169.88;;;28.18
11926;BMP180;6022;48.768;18.608;2022-08-01T14:58:32;98170.09;;;28.16
11926;BMP180;6022;48.768;18.608;2022-08-01T15:01:00;98159.19;;;28.26
11926;BMP180;6022;48.768;18.608;2022-08-01T15:03:28;98165.47;;;28.18